sensor_id;sensor_type;location;lat;lon;timestamp;temperature;humidity
21167;DHT22;10741;52.272;9.580;2023-04-01T00:00:58;9.50;99.90
21167;DHT22;10741;52.272;9.580;2023-04-01T00:03:24;9.50;99.90
21167;DHT22;10741;52.272;9.580;2023-04-01T00:05:52;9.40;99.90
21167;DHT22;10741;52.272;9.580;2023-04-01T00:08:18;9.40;99.90
21167;DHT22;10741;52.272;9.580;2023-04-01T00:10:44;9.50;99.90
21167;DHT22;10741;52.272;9.580;2023-04-01T00:13:11;9.40;99.90
21167;DHT22;10741;52.272;9.580;2023-04-01T00:15:37;9.40;99.90
21167;DHT22;10741;52.272;9.580;2023-04-01T00:18:03;9.40;99.90
21167;DHT22;10741;52.272;9.580;2023-04-01T00:20:29;9.40;99.90
21167;DHT22;10741;52.272;9.580;2023-04-01T00:22:55;9.40;99.90
21167;DHT22;10741;52.272;9.580;2023-04-01T00:25:22;9.40;99.90
21167;DHT22;10741;52.272;9.580;2023-04-01T00:27:48;9.40;99.90
21167;DHT22;10741;52.272;9.580;2023-04-01T00:30:15;9.40;99.90
21167;DHT22;10741;52.272;9.580;2023-04-01T00:32:41;9.30;99.90
21167;DHT22;10741;52.272;9.580;2023-04-01T00:35:07;9.30;99.90
21167;DHT22;10741;52.272;9.580;2023-04-01T00:37:35;9.30;99.90
21167;DHT22;10741;52.272;9.580;2023-04-01T00:40:03;9.30;99.90
21167;DHT22;10741;52.272;9.580;2023-04-01T00:42:29;9.30;99.90
21167;DHT22;10741;52.272;9.580;2023-04-01T00:44:55;9.30;99.90
21167;DHT22;10741;52.272;9.580;2023-04-01T00:47:22;9.30;99.90
21167;DHT22;10741;52.272;9.580;2023-04-01T00:49:51;9.30;99.90
21167;DHT22;10741;52.272;9.580;2023-04-01T00:52:23;9.30;99.90
21167;DHT22;10741;52.272;9.580;2023-04-01T00:54:53;9.20;99.90
21167;DHT22;10741;52.272;9.580;2023-04-01T00:57:34;9.20;99.90
21167;DHT22;10741;52.272;9.580;2023-04-01T01:00:05;9.20;99.90
21167;DHT22;10741;52.272;9.580;2023-04-01T01:02:33;9.20;99.90
21167;DHT22;10741;52.272;9.580;2023-04-01T01:05:00;9.20;99.90
21167;DHT22;10741;52.272;9.580;2023-04-01T01:10:21;9.10;99.90
21167;DHT22;10741;52.272;9.580;2023-04-01T01:24:02;9.10;99.90
21167;DHT22;10741;52.272;9.580;2023-04-01T01:26:55;9.10;99.90
21167;DHT22;10741;52.272;9.580;2023-04-01T01:35:19;9.10;99.90
21167;DHT22;10741;52.272;9.580;2023-04-01T01:37:47;9.10;99.90
21167;DHT22;10741;52.272;9.580;2023-04-01T01:40:16;9.10;99.90
21167;DHT22;10741;52.272;9.580;2023-04-01T01:42:47;9.10;99.90
21167;DHT22;10741;52.272;9.580;2023-04-01T01:45:15;9.10;99.90
21167;DHT22;10741;52.272;9.580;2023-04-01T01:47:44;9.10;99.90
21167;DHT22;10741;52.272;9.580;2023-04-01T01:50:11;9.10;99.90
21167;DHT22;10741;52.272;9.580;2023-04-01T01:52:38;9.10;99.90
21167;DHT22;10741;52.272;9.580;2023-04-01T01:55:42;9.10;99.90
21167;DHT22;10741;52.272;9.580;2023-04-01T01:58:22;9.10;99.90
21167;DHT22;10741;52.272;9.580;2023-04-01T02:01:19;9.10;99.90
21167;DHT22;10741;52.272;9.580;2023-04-01T02:03:46;9.10;99.90
21167;DHT22;10741;52.272;9.580;2023-04-01T02:06:17;9.10;99.90
21167;DHT22;10741;52.272;9.580;2023-04-01T02:08:52;9.00;99.90
21167;DHT22;10741;52.272;9.580;2023-04-01T02:11:34;9.00;99.90
21167;DHT22;10741;52.272;9.580;2023-04-01T02:16:58;9.00;99.90
21167;DHT22;10741;52.272;9.580;2023-04-01T02:19:30;9.00;99.90
21167;DHT22;10741;52.272;9.580;2023-04-01T02:22:00;9.00;99.90
21167;DHT22;10741;52.272;9.580;2023-04-01T02:24:28;9.00;99.90
21167;DHT22;10741;52.272;9.580;2023-04-01T02:26:55;9.00;99.90
21167;DHT22;10741;52.272;9.580;2023-04-01T02:29:23;9.00;99.90
21167;DHT22;10741;52.272;9.580;2023-04-01T02:31:51;9.00;99.90
21167;DHT22;10741;52.272;9.580;2023-04-01T02:34:18;9.00;99.90
21167;DHT22;10741;52.272;9.580;2023-04-01T02:36:44;9.00;99.90
21167;DHT22;10741;52.272;9.580;2023-04-01T02:39:10;9.00;99.90
21167;DHT22;10741;52.272;9.580;2023-04-01T02:41:43;9.00;99.90
21167;DHT22;10741;52.272;9.580;2023-04-01T02:44:11;9.00;99.90
21167;DHT22;10741;52.272;9.580;2023-04-01T02:46:37;9.00;99.90
21167;DHT22;10741;52.272;9.580;2023-04-01T02:49:03;8.90;99.90
21167;DHT22;10741;52.272;9.580;2023-04-01T02:51:29;9.00;99.90
21167;DHT22;10741;52.272;9.580;2023-04-01T02:53:55;9.00;99.90
21167;DHT22;10741;52.272;9.580;2023-04-01T02:56:21;9.00;99.90
21167;DHT22;10741;52.272;9.580;2023-04-01T02:58:47;9.00;99.90
21167;DHT22;10741;52.272;9.580;2023-04-01T03:01:13;9.00;99.90
21167;DHT22;10741;52.272;9.580;2023-04-01T03:03:39;9.00;99.90
21167;DHT22;10741;52.272;9.580;2023-04-01T03:06:08;9.00;99.90
21167;DHT22;10741;52.272;9.580;2023-04-01T03:08:35;8.90;99.90
21167;DHT22;10741;52.272;9.580;2023-04-01T03:11:01;8.90;99.90
21167;DHT22;10741;52.272;9.580;2023-04-01T03:13:26;9.00;99.90
21167;DHT22;10741;52.272;9.580;2023-04-01T03:15:52;8.90;99.90
21167;DHT22;10741;52.272;9.580;2023-04-01T03:18:18;8.90;99.90
21167;DHT22;10741;52.272;9.580;2023-04-01T03:20:45;8.90;99.90
21167;DHT22;10741;52.272;9.580;2023-04-01T03:23:11;8.90;99.90
21167;DHT22;10741;52.272;9.580;2023-04-01T03:25:36;8.90;99.90
21167;DHT22;10741;52.272;9.580;2023-04-01T03:28:03;8.90;99.90
21167;DHT22;10741;52.272;9.580;2023-04-01T03:30:29;8.90;99.90
21167;DHT22;10741;52.272;9.580;2023-04-01T03:32:58;8.90;99.90
21167;DHT22;10741;52.272;9.580;2023-04-01T03:35:25;8.90;99.90
21167;DHT22;10741;52.272;9.580;2023-04-01T03:37:51;8.90;99.90
21167;DHT22;10741;52.272;9.580;2023-04-01T03:40:17;8.90;99.90
21167;DHT22;10741;52.272;9.580;2023-04-01T03:42:43;8.90;99.90
21167;DHT22;10741;52.272;9.580;2023-04-01T03:45:09;8.90;99.90
21167;DHT22;10741;52.272;9.580;2023-04-01T03:47:35;8.90;99.90
21167;DHT22;10741;52.272;9.580;2023-04-01T03:50:01;8.90;99.90
21167;DHT22;10741;52.272;9.580;2023-04-01T03:52:27;9.00;99.90
21167;DHT22;10741;52.272;9.580;2023-04-01T03:54:53;8.90;99.90
21167;DHT22;10741;52.272;9.580;2023-04-01T03:57:18;8.90;99.90
21167;DHT22;10741;52.272;9.580;2023-04-01T03:59:44;8.90;99.90
21167;DHT22;10741;52.272;9.580;2023-04-01T04:02:10;8.90;99.90
21167;DHT22;10741;52.272;9.580;2023-04-01T04:04:36;8.90;99.90
21167;DHT22;10741;52.272;9.580;2023-04-01T04:07:01;8.90;99.90
21167;DHT22;10741;52.272;9.580;2023-04-01T04:09:27;8.90;99.90
21167;DHT22;10741;52.272;9.580;2023-04-01T04:11:55;8.90;99.90
21167;DHT22;10741;52.272;9.580;2023-04-01T04:14:20;8.90;99.90
21167;DHT22;10741;52.272;9.580;2023-04-01T04:16:46;8.90;99.90
21167;DHT22;10741;52.272;9.580;2023-04-01T04:19:12;8.90;99.90
21167;DHT22;10741;52.272;9.580;2023-04-01T04:21:40;8.90;99.90
21167;DHT22;10741;52.272;9.580;2023-04-01T04:24:06;8.90;99.90
21167;DHT22;10741;52.272;9.580;2023-04-01T04:26:32;8.90;99.90
21167;DHT22;10741;52.272;9.580;2023-04-01T04:28:58;8.90;99.90
21167;DHT22;10741;52.272;9.580;2023-04-01T04:31:24;8.90;99.90
21167;DHT22;10741;52.272;9.580;2023-04-01T04:33:51;8.90;99.90
21167;DHT22;10741;52.272;9.580;2023-04-01T04:36:17;8.90;99.90
21167;DHT22;10741;52.272;9.580;2023-04-01T04:38:43;8.90;99.90
21167;DHT22;10741;52.272;9.580;2023-04-01T04:41:13;8.90;99.90
21167;DHT22;10741;52.272;9.580;2023-04-01T04:43:41;8.90;99.90
21167;DHT22;10741;52.272;9.580;2023-04-01T04:46:07;8.90;99.90
21167;DHT22;10741;52.272;9.580;2023-04-01T04:48:33;8.90;99.90
21167;DHT22;10741;52.272;9.580;2023-04-01T04:50:59;8.90;99.90
21167;DHT22;10741;52.272;9.580;2023-04-01T04:53:26;8.90;99.90
21167;DHT22;10741;52.272;9.580;2023-04-01T04:55:52;8.90;99.90
21167;DHT22;10741;52.272;9.580;2023-04-01T04:58:18;8.90;99.90
21167;DHT22;10741;52.272;9.580;2023-04-01T05:00:44;8.90;99.90
21167;DHT22;10741;52.272;9.580;2023-04-01T05:03:10;8.90;99.90
21167;DHT22;10741;52.272;9.580;2023-04-01T05:05:36;8.90;99.90
21167;DHT22;10741;52.272;9.580;2023-04-01T05:08:03;8.90;99.90
21167;DHT22;10741;52.272;9.580;2023-04-01T05:10:29;8.90;99.90
21167;DHT22;10741;52.272;9.580;2023-04-01T05:12:56;8.90;99.90
21167;DHT22;10741;52.272;9.580;2023-04-01T05:15:22;8.90;99.90
21167;DHT22;10741;52.272;9.580;2023-04-01T05:17:47;8.90;99.90
21167;DHT22;10741;52.272;9.580;2023-04-01T05:20:13;8.90;99.90
21167;DHT22;10741;52.272;9.580;2023-04-01T05:22:40;8.90;99.90
21167;DHT22;10741;52.272;9.580;2023-04-01T05:25:06;8.90;99.90
21167;DHT22;10741;52.272;9.580;2023-04-01T05:27:32;8.90;99.90
21167;DHT22;10741;52.272;9.580;2023-04-01T05:29:58;8.90;99.90
21167;DHT22;10741;52.272;9.580;2023-04-01T05:32:24;8.90;99.90
21167;DHT22;10741;52.272;9.580;2023-04-01T05:34:51;9.00;99.90
21167;DHT22;10741;52.272;9.580;2023-04-01T05:37:17;9.00;99.90
21167;DHT22;10741;52.272;9.580;2023-04-01T05:39:43;9.00;99.90
21167;DHT22;10741;52.272;9.580;2023-04-01T05:42:09;9.10;99.90
21167;DHT22;10741;52.272;9.580;2023-04-01T05:44:35;9.10;99.90
21167;DHT22;10741;52.272;9.580;2023-04-01T05:47:02;9.10;99.90
21167;DHT22;10741;52.272;9.580;2023-04-01T05:49:28;9.10;99.90
21167;DHT22;10741;52.272;9.580;2023-04-01T05:51:54;9.10;99.90
21167;DHT22;10741;52.272;9.580;2023-04-01T05:54:20;9.20;99.90
21167;DHT22;10741;52.272;9.580;2023-04-01T05:56:46;9.20;99.90
21167;DHT22;10741;52.272;9.580;2023-04-01T05:59:12;9.20;99.90
21167;DHT22;10741;52.272;9.580;2023-04-01T06:01:39;9.20;99.90
21167;DHT22;10741;52.272;9.580;2023-04-01T06:04:04;9.20;99.90
21167;DHT22;10741;52.272;9.580;2023-04-01T06:06:31;9.30;99.90
21167;DHT22;10741;52.272;9.580;2023-04-01T06:09:07;9.30;99.90
21167;DHT22;10741;52.272;9.580;2023-04-01T06:14:36;9.30;99.90
21167;DHT22;10741;52.272;9.580;2023-04-01T06:22:22;9.30;99.90
21167;DHT22;10741;52.272;9.580;2023-04-01T06:30:32;9.20;99.90
21167;DHT22;10741;52.272;9.580;2023-04-01T06:54:47;9.40;99.90
21167;DHT22;10741;52.272;9.580;2023-04-01T06:59:51;9.50;99.90
21167;DHT22;10741;52.272;9.580;2023-04-01T07:02:32;9.60;99.90
21167;DHT22;10741;52.272;9.580;2023-04-01T07:05:01;9.60;99.90
21167;DHT22;10741;52.272;9.580;2023-04-01T07:07:41;9.60;99.90
21167;DHT22;10741;52.272;9.580;2023-04-01T07:10:17;9.60;99.90
21167;DHT22;10741;52.272;9.580;2023-04-01T07:12:46;9.50;99.90
21167;DHT22;10741;52.272;9.580;2023-04-01T07:15:18;9.60;99.90
21167;DHT22;10741;52.272;9.580;2023-04-01T07:17:47;9.70;99.90
21167;DHT22;10741;52.272;9.580;2023-04-01T07:22:47;9.90;99.90
21167;DHT22;10741;52.272;9.580;2023-04-01T07:28:34;10.00;99.90
21167;DHT22;10741;52.272;9.580;2023-04-01T07:30:57;10.00;99.90
21167;DHT22;10741;52.272;9.580;2023-04-01T07:33:49;10.10;99.90
21167;DHT22;10741;52.272;9.580;2023-04-01T07:50:29;10.30;99.90
21167;DHT22;10741;52.272;9.580;2023-04-01T07:53:26;10.30;99.90
21167;DHT22;10741;52.272;9.580;2023-04-01T07:56:07;10.40;99.90
21167;DHT22;10741;52.272;9.580;2023-04-01T08:01:47;10.30;99.90
21167;DHT22;10741;52.272;9.580;2023-04-01T08:07:21;10.30;99.90
21167;DHT22;10741;52.272;9.580;2023-04-01T08:10:18;10.30;99.90
21167;DHT22;10741;52.272;9.580;2023-04-01T08:13:30;10.40;99.90
21167;DHT22;10741;52.272;9.580;2023-04-01T08:16:09;10.50;99.90
21167;DHT22;10741;52.272;9.580;2023-04-01T08:21:39;10.60;99.90
21167;DHT22;10741;52.272;9.580;2023-04-01T08:24:40;10.70;99.90
21167;DHT22;10741;52.272;9.580;2023-04-01T08:30:21;10.60;99.90
21167;DHT22;10741;52.272;9.580;2023-04-01T08:35:38;10.80;99.90
21167;DHT22;10741;52.272;9.580;2023-04-01T08:38:22;11.00;99.90
21167;DHT22;10741;52.272;9.580;2023-04-01T08:44:07;11.10;99.90
21167;DHT22;10741;52.272;9.580;2023-04-01T09:32:42;11.50;99.90
21167;DHT22;10741;52.272;9.580;2023-04-01T09:49:21;11.50;99.90
21167;DHT22;10741;52.272;9.580;2023-04-01T10:00:20;11.70;99.90
21167;DHT22;10741;52.272;9.580;2023-04-01T10:06:12;11.70;99.90
21167;DHT22;10741;52.272;9.580;2023-04-01T10:22:22;12.10;99.90
21167;DHT22;10741;52.272;9.580;2023-04-01T10:42:28;12.20;99.90
21167;DHT22;10741;52.272;9.580;2023-04-01T10:53:34;12.80;99.90
21167;DHT22;10741;52.272;9.580;2023-04-01T11:15:16;12.20;99.90
21167;DHT22;10741;52.272;9.580;2023-04-01T11:39:20;12.40;99.90
21167;DHT22;10741;52.272;9.580;2023-04-01T11:42:13;12.40;99.90
21167;DHT22;10741;52.272;9.580;2023-04-01T11:47:55;12.40;99.90
21167;DHT22;10741;52.272;9.580;2023-04-01T11:56:07;12.60;99.90
21167;DHT22;10741;52.272;9.580;2023-04-01T12:01:33;12.80;99.90
21167;DHT22;10741;52.272;9.580;2023-04-01T12:12:40;13.00;99.90
21167;DHT22;10741;52.272;9.580;2023-04-01T12:15:34;13.10;99.90
21167;DHT22;10741;52.272;9.580;2023-04-01T12:18:20;13.20;99.90
21167;DHT22;10741;52.272;9.580;2023-04-01T12:21:20;13.20;99.90
21167;DHT22;10741;52.272;9.580;2023-04-01T12:26:54;13.20;99.90
21167;DHT22;10741;52.272;9.580;2023-04-01T12:38:11;13.30;99.90
21167;DHT22;10741;52.272;9.580;2023-04-01T12:43:59;13.50;99.90
21167;DHT22;10741;52.272;9.580;2023-04-01T12:49:22;13.60;99.90
21167;DHT22;10741;52.272;9.580;2023-04-01T12:52:26;13.70;99.90
21167;DHT22;10741;52.272;9.580;2023-04-01T12:55:07;13.70;99.90
21167;DHT22;10741;52.272;9.580;2023-04-01T12:57:58;13.90;99.90
21167;DHT22;10741;52.272;9.580;2023-04-01T13:00:44;13.80;99.90
21167;DHT22;10741;52.272;9.580;2023-04-01T13:03:41;13.90;99.90
21167;DHT22;10741;52.272;9.580;2023-04-01T13:17:09;13.20;99.90
21167;DHT22;10741;52.272;9.580;2023-04-01T13:22:41;13.10;99.90
21167;DHT22;10741;52.272;9.580;2023-04-01T13:25:43;13.00;99.90
21167;DHT22;10741;52.272;9.580;2023-04-01T13:28:17;13.00;99.90
21167;DHT22;10741;52.272;9.580;2023-04-01T13:33:26;13.00;99.90
21167;DHT22;10741;52.272;9.580;2023-04-01T13:42:06;13.00;99.90
21167;DHT22;10741;52.272;9.580;2023-04-01T13:44:44;12.80;99.90
21167;DHT22;10741;52.272;9.580;2023-04-01T13:55:30;12.40;99.90
21167;DHT22;10741;52.272;9.580;2023-04-01T13:58:27;12.40;99.90
21167;DHT22;10741;52.272;9.580;2023-04-01T14:01:19;12.30;99.90
21167;DHT22;10741;52.272;9.580;2023-04-01T14:06:40;12.40;99.90
21167;DHT22;10741;52.272;9.580;2023-04-01T14:14:44;12.30;99.90
21167;DHT22;10741;52.272;9.580;2023-04-01T14:28:49;12.30;99.90
21167;DHT22;10741;52.272;9.580;2023-04-01T14:49:36;11.40;99.90
21167;DHT22;10741;52.272;9.580;2023-04-01T14:52:16;11.20;99.90
21167;DHT22;10741;52.272;9.580;2023-04-01T14:54:44;11.00;99.90
21167;DHT22;10741;52.272;9.580;2023-04-01T14:57:30;10.80;99.90
21167;DHT22;10741;52.272;9.580;2023-04-01T15:00:16;10.70;99.90
21167;DHT22;10741;52.272;9.580;2023-04-01T15:13:40;10.10;99.90
21167;DHT22;10741;52.272;9.580;2023-04-01T15:16:22;10.00;99.90
21167;DHT22;10741;52.272;9.580;2023-04-01T15:18:53;9.90;99.90
21167;DHT22;10741;52.272;9.580;2023-04-01T15:27:40;9.80;99.90
21167;DHT22;10741;52.272;9.580;2023-04-01T15:41:12;9.40;99.90
21167;DHT22;10741;52.272;9.580;2023-04-01T15:43:49;9.30;99.90
21167;DHT22;10741;52.272;9.580;2023-04-01T15:49:23;9.20;99.90
21167;DHT22;10741;52.272;9.580;2023-04-01T15:52:21;9.10;99.90
21167;DHT22;10741;52.272;9.580;2023-04-01T15:55:27;9.10;99.90
21167;DHT22;10741;52.272;9.580;2023-04-01T16:12:01;8.80;99.90
21167;DHT22;10741;52.272;9.580;2023-04-01T16:29:17;8.70;99.90
21167;DHT22;10741;52.272;9.580;2023-04-01T16:34:47;8.70;99.90
21167;DHT22;10741;52.272;9.580;2023-04-01T16:37:32;8.70;99.90
21167;DHT22;10741;52.272;9.580;2023-04-01T16:54:17;8.40;99.90
21167;DHT22;10741;52.272;9.580;2023-04-01T16:56:54;8.20;99.90
21167;DHT22;10741;52.272;9.580;2023-04-01T16:59:36;8.10;99.90
21167;DHT22;10741;52.272;9.580;2023-04-01T17:02:10;8.10;99.90
21167;DHT22;10741;52.272;9.580;2023-04-01T17:04:49;8.10;99.90
21167;DHT22;10741;52.272;9.580;2023-04-01T17:12:50;8.10;99.90
21167;DHT22;10741;52.272;9.580;2023-04-01T17:15:59;8.00;99.90
21167;DHT22;10741;52.272;9.580;2023-04-01T17:22:07;7.90;99.90
21167;DHT22;10741;52.272;9.580;2023-04-01T17:25:09;7.80;99.90
21167;DHT22;10741;52.272;9.580;2023-04-01T17:28:04;7.70;99.90
21167;DHT22;10741;52.272;9.580;2023-04-01T17:30:39;7.70;99.90
21167;DHT22;10741;52.272;9.580;2023-04-01T17:36:33;7.70;99.90
21167;DHT22;10741;52.272;9.580;2023-04-01T17:39:24;7.70;99.90
21167;DHT22;10741;52.272;9.580;2023-04-01T17:44:45;7.60;99.90
21167;DHT22;10741;52.272;9.580;2023-04-01T17:47:19;7.60;99.90
21167;DHT22;10741;52.272;9.580;2023-04-01T17:55:37;7.30;99.90
21167;DHT22;10741;52.272;9.580;2023-04-01T18:00:56;7.30;99.90
21167;DHT22;10741;52.272;9.580;2023-04-01T18:17:57;6.90;99.90
21167;DHT22;10741;52.272;9.580;2023-04-01T18:26:21;6.90;99.90
21167;DHT22;10741;52.272;9.580;2023-04-01T18:32:00;6.80;99.90
21167;DHT22;10741;52.272;9.580;2023-04-01T18:37:42;6.80;99.90
21167;DHT22;10741;52.272;9.580;2023-04-01T18:43:22;6.70;99.90
21167;DHT22;10741;52.272;9.580;2023-04-01T18:45:58;6.80;99.90
21167;DHT22;10741;52.272;9.580;2023-04-01T18:48:48;6.70;99.90
21167;DHT22;10741;52.272;9.580;2023-04-01T18:51:26;6.70;99.90
21167;DHT22;10741;52.272;9.580;2023-04-01T18:54:02;6.70;99.90
21167;DHT22;10741;52.272;9.580;2023-04-01T18:56:37;6.70;99.90
21167;DHT22;10741;52.272;9.580;2023-04-01T18:59:26;6.70;99.90
21167;DHT22;10741;52.272;9.580;2023-04-01T19:10:41;6.60;99.90
21167;DHT22;10741;52.272;9.580;2023-04-01T19:24:46;6.40;99.90
21167;DHT22;10741;52.272;9.580;2023-04-01T19:27:36;6.30;99.90
21167;DHT22;10741;52.272;9.580;2023-04-01T19:35:42;6.30;99.90
21167;DHT22;10741;52.272;9.580;2023-04-01T19:40:55;6.20;99.90
21167;DHT22;10741;52.272;9.580;2023-04-01T19:46:24;6.30;99.90
21167;DHT22;10741;52.272;9.580;2023-04-01T19:54:43;6.20;99.90
21167;DHT22;10741;52.272;9.580;2023-04-01T19:57:21;6.20;99.90
21167;DHT22;10741;52.272;9.580;2023-04-01T20:02:53;6.10;99.90
21167;DHT22;10741;52.272;9.580;2023-04-01T20:07:58;6.00;99.90
21167;DHT22;10741;52.272;9.580;2023-04-01T20:10:50;6.00;99.90
21167;DHT22;10741;52.272;9.580;2023-04-01T20:13:36;5.90;99.90
21167;DHT22;10741;52.272;9.580;2023-04-01T20:16:09;5.90;99.90
21167;DHT22;10741;52.272;9.580;2023-04-01T20:18:48;5.80;99.90
21167;DHT22;10741;52.272;9.580;2023-04-01T20:24:46;5.70;99.90
21167;DHT22;10741;52.272;9.580;2023-04-01T20:26:48;5.60;99.90
21167;DHT22;10741;52.272;9.580;2023-04-01T20:34:39;5.60;99.90
21167;DHT22;10741;52.272;9.580;2023-04-01T20:37:47;5.60;99.90
21167;DHT22;10741;52.272;9.580;2023-04-01T20:43:58;5.50;99.90
21167;DHT22;10741;52.272;9.580;2023-04-01T20:46:20;5.50;99.90
21167;DHT22;10741;52.272;9.580;2023-04-01T20:52:05;5.50;99.90
21167;DHT22;10741;52.272;9.580;2023-04-01T21:00:19;5.30;99.90
21167;DHT22;10741;52.272;9.580;2023-04-01T21:06:27;5.40;99.90
21167;DHT22;10741;52.272;9.580;2023-04-01T21:09:26;5.30;99.90
21167;DHT22;10741;52.272;9.580;2023-04-01T21:20:27;5.30;99.90
21167;DHT22;10741;52.272;9.580;2023-04-01T21:23:17;5.40;99.90
21167;DHT22;10741;52.272;9.580;2023-04-01T21:26:05;5.30;99.90
21167;DHT22;10741;52.272;9.580;2023-04-01T21:57:01;5.20;99.90
21167;DHT22;10741;52.272;9.580;2023-04-01T21:59:20;5.10;99.90
21167;DHT22;10741;52.272;9.580;2023-04-01T22:02:21;5.10;99.90
21167;DHT22;10741;52.272;9.580;2023-04-01T22:04:57;5.10;99.90
21167;DHT22;10741;52.272;9.580;2023-04-01T22:08:00;5.00;99.90
21167;DHT22;10741;52.272;9.580;2023-04-01T22:10:47;5.00;99.90
21167;DHT22;10741;52.272;9.580;2023-04-01T22:13:29;4.90;99.90
21167;DHT22;10741;52.272;9.580;2023-04-01T22:30:24;4.80;99.90
21167;DHT22;10741;52.272;9.580;2023-04-01T22:34:00;4.80;99.90
21167;DHT22;10741;52.272;9.580;2023-04-01T22:44:04;4.70;99.90
21167;DHT22;10741;52.272;9.580;2023-04-01T22:46:50;4.70;99.90
21167;DHT22;10741;52.272;9.580;2023-04-01T22:49:29;4.60;99.90
21167;DHT22;10741;52.272;9.580;2023-04-01T22:52:05;4.60;99.90
21167;DHT22;10741;52.272;9.580;2023-04-01T22:54:54;4.70;99.90
21167;DHT22;10741;52.272;9.580;2023-04-01T22:57:43;4.70;99.90
21167;DHT22;10741;52.272;9.580;2023-04-01T23:05:53;4.70;99.90
21167;DHT22;10741;52.272;9.580;2023-04-01T23:11:37;4.60;99.90
21167;DHT22;10741;52.272;9.580;2023-04-01T23:30:51;4.40;99.90
21167;DHT22;10741;52.272;9.580;2023-04-01T23:33:23;4.40;99.90
21167;DHT22;10741;52.272;9.580;2023-04-01T23:36:10;4.40;99.90
21167;DHT22;10741;52.272;9.580;2023-04-01T23:38:40;4.30;99.90
21167;DHT22;10741;52.272;9.580;2023-04-01T23:41:18;4.20;99.90
21167;DHT22;10741;52.272;9.580;2023-04-01T23:44:03;4.20;99.90
21167;DHT22;10741;52.272;9.580;2023-04-01T23:46:30;4.20;99.90
21167;DHT22;10741;52.272;9.580;2023-04-01T23:48:57;4.10;99.90
21167;DHT22;10741;52.272;9.580;2023-04-01T23:51:26;4.20;99.90
21167;DHT22;10741;52.272;9.580;2023-04-01T23:54:00;4.20;99.90
21167;DHT22;10741;52.272;9.580;2023-04-01T23:56:43;4.10;99.90
21167;DHT22;10741;52.272;9.580;2023-04-01T23:59:29;4.10;99.90
